VOE57EQ LFPO-LIMC
Flight info
| Callsign | VOE57EQ |
|---|---|
| Flight time | 1h 30m |
| Altitude | 31000 |
| Route | BUBLI DCT LUVAL DCT SHARA DCT DEVDI DCT BASGO Z424 RIXUV |
| Aircraft | A320/M-SDE3FGHIRWY/LB1 |
Departure
| Time | 2026-05-05 19:28 |
|---|---|
| Airport | Paris-Orly Airport (LFPO) |
Arrival
| Time | 2026-05-05 20:58 |
|---|---|
| Airport | Milan Malpensa International Airport (LIMC) |
| Time | Latitude | Longitude | Altitude | Speed | Heading |
|---|---|---|---|---|---|
| 2026-05-05 19:09 | 48.72897 | 2.35664 | 291 ft | 0 kts | 119° |
| 2026-05-05 19:19 | 48.72903 | 2.35647 | 291 ft | 2 kts | 119° |
| 2026-05-05 19:19 | 48.72910 | 2.35627 | 291 ft | 2 kts | 120° |
| 2026-05-05 19:19 | 48.72918 | 2.35608 | 291 ft | 2 kts | 119° |
| 2026-05-05 19:20 | 48.72925 | 2.35588 | 291 ft | 2 kts | 120° |
| 2026-05-05 19:20 | 48.72932 | 2.35569 | 291 ft | 2 kts | 119° |
| 2026-05-05 19:20 | 48.72940 | 2.35550 | 291 ft | 2 kts | 120° |
| 2026-05-05 19:20 | 48.72947 | 2.35530 | 291 ft | 1 kts | 119° |
| 2026-05-05 19:21 | 48.72951 | 2.35521 | 291 ft | 0 kts | 159° |
| 2026-05-05 19:21 | 48.72957 | 2.35520 | 291 ft | 1 kts | 173° |
| 2026-05-05 19:23 | 48.72948 | 2.35521 | 291 ft | 3 kts | 183° |
| 2026-05-05 19:23 | 48.72912 | 2.35483 | 290 ft | 9 kts | 240° |
| 2026-05-05 19:23 | 48.72846 | 2.35437 | 291 ft | 14 kts | 164° |
| 2026-05-05 19:24 | 48.72735 | 2.35483 | 291 ft | 18 kts | 164° |
| 2026-05-05 19:24 | 48.72597 | 2.35540 | 291 ft | 21 kts | 163° |
| 2026-05-05 19:24 | 48.72449 | 2.35603 | 291 ft | 22 kts | 165° |
| 2026-05-05 19:24 | 48.72318 | 2.35631 | 290 ft | 18 kts | 197° |
| 2026-05-05 19:25 | 48.72195 | 2.35612 | 291 ft | 18 kts | 164° |
| 2026-05-05 19:25 | 48.72085 | 2.35661 | 291 ft | 12 kts | 159° |
| 2026-05-05 19:25 | 48.72032 | 2.35742 | 291 ft | 7 kts | 121° |
| 2026-05-05 19:25 | 48.72026 | 2.35758 | 291 ft | 2 kts | 120° |
| 2026-05-05 19:26 | 48.72013 | 2.35792 | 290 ft | 5 kts | 120° |
| 2026-05-05 19:26 | 48.71989 | 2.35848 | 291 ft | 7 kts | 136° |
| 2026-05-05 19:26 | 48.71949 | 2.35879 | 291 ft | 1 kts | 116° |
| 2026-05-05 19:26 | 48.71950 | 2.35918 | 291 ft | 0 kts | 73° |
| 2026-05-05 19:27 | 48.71957 | 2.35953 | 291 ft | 21 kts | 73° |
| 2026-05-05 19:27 | 48.72068 | 2.36553 | 291 ft | 95 kts | 73° |
| 2026-05-05 19:28 | 48.72307 | 2.37851 | 292 ft | 156 kts | 74° |
| 2026-05-05 19:28 | 48.72609 | 2.39540 | 748 ft | 170 kts | 72° |
| 2026-05-05 19:28 | 48.72924 | 2.41268 | 1458 ft | 173 kts | 72° |
| 2026-05-05 19:28 | 48.73238 | 2.42996 | 2229 ft | 171 kts | 72° |
| 2026-05-05 19:29 | 48.73549 | 2.44751 | 2832 ft | 178 kts | 72° |
| 2026-05-05 19:29 | 48.73897 | 2.46566 | 3361 ft | 186 kts | 72° |
| 2026-05-05 19:29 | 48.74183 | 2.48532 | 3752 ft | 198 kts | 79° |
| 2026-05-05 19:29 | 48.74295 | 2.50711 | 4075 ft | 215 kts | 86° |
| 2026-05-05 19:30 | 48.74310 | 2.53068 | 4307 ft | 237 kts | 88° |
| 2026-05-05 19:30 | 48.74316 | 2.55652 | 4686 ft | 254 kts | 86° |
| 2026-05-05 19:30 | 48.74459 | 2.58383 | 5075 ft | 270 kts | 81° |
| 2026-05-05 19:30 | 48.74719 | 2.61279 | 5629 ft | 280 kts | 81° |
| 2026-05-05 19:31 | 48.74990 | 2.64198 | 6353 ft | 283 kts | 81° |
| 2026-05-05 19:31 | 48.75263 | 2.67126 | 7038 ft | 285 kts | 82° |
| 2026-05-05 19:31 | 48.75526 | 2.70123 | 7695 ft | 290 kts | 83° |
| 2026-05-05 19:31 | 48.75764 | 2.73172 | 8358 ft | 293 kts | 84° |
| 2026-05-05 19:32 | 48.75993 | 2.76244 | 8741 ft | 295 kts | 83° |
| 2026-05-05 19:32 | 48.76226 | 2.79349 | 8835 ft | 296 kts | 84° |
| 2026-05-05 19:32 | 48.76463 | 2.82445 | 8857 ft | 295 kts | 84° |
| 2026-05-05 19:32 | 48.76696 | 2.85539 | 8977 ft | 296 kts | 84° |
| 2026-05-05 19:33 | 48.76931 | 2.88636 | 9100 ft | 297 kts | 84° |
| 2026-05-05 19:33 | 48.77163 | 2.91736 | 9224 ft | 297 kts | 84° |
| 2026-05-05 19:33 | 48.77397 | 2.94839 | 9410 ft | 303 kts | 84° |
| 2026-05-05 19:33 | 48.77663 | 2.98052 | 10118 ft | 306 kts | 81° |
| 2026-05-05 19:34 | 48.78025 | 3.01220 | 10709 ft | 314 kts | 80° |
| 2026-05-05 19:34 | 48.78424 | 3.04545 | 11030 ft | 331 kts | 80° |
| 2026-05-05 19:34 | 48.78848 | 3.08061 | 11329 ft | 348 kts | 80° |
| 2026-05-05 19:35 | 48.79753 | 3.15620 | 12059 ft | 374 kts | 81° |
| 2026-05-05 19:35 | 48.80213 | 3.19492 | 12688 ft | 377 kts | 81° |
| 2026-05-05 19:35 | 48.80674 | 3.23401 | 13325 ft | 380 kts | 81° |
| 2026-05-05 19:35 | 48.81136 | 3.27334 | 13915 ft | 382 kts | 81° |
| 2026-05-05 19:36 | 48.81605 | 3.31335 | 14487 ft | 386 kts | 81° |
| 2026-05-05 19:36 | 48.81976 | 3.35359 | 15041 ft | 388 kts | 86° |
| 2026-05-05 19:36 | 48.82085 | 3.39458 | 15592 ft | 390 kts | 92° |
| 2026-05-05 19:36 | 48.81928 | 3.43562 | 16133 ft | 392 kts | 96° |
| 2026-05-05 19:37 | 48.81670 | 3.47690 | 16663 ft | 395 kts | 97° |
| 2026-05-05 19:37 | 48.81394 | 3.51824 | 17178 ft | 397 kts | 97° |
| 2026-05-05 19:37 | 48.81115 | 3.56013 | 17685 ft | 400 kts | 97° |
| 2026-05-05 19:37 | 48.80838 | 3.60221 | 18176 ft | 403 kts | 97° |
| 2026-05-05 19:38 | 48.80561 | 3.64443 | 18657 ft | 405 kts | 97° |
| 2026-05-05 19:38 | 48.80283 | 3.68693 | 19128 ft | 407 kts | 98° |
| 2026-05-05 19:38 | 48.80002 | 3.72977 | 19569 ft | 410 kts | 98° |
| 2026-05-05 19:38 | 48.79727 | 3.77142 | 20023 ft | 412 kts | 98° |
| 2026-05-05 19:39 | 48.79439 | 3.81481 | 20483 ft | 414 kts | 98° |
| 2026-05-05 19:39 | 48.79147 | 3.85861 | 20937 ft | 415 kts | 98° |
| 2026-05-05 19:39 | 48.78856 | 3.90207 | 21373 ft | 417 kts | 98° |
| 2026-05-05 19:39 | 48.78563 | 3.94554 | 21785 ft | 419 kts | 97° |
| 2026-05-05 19:40 | 48.78262 | 3.98927 | 22185 ft | 420 kts | 99° |
| 2026-05-05 19:40 | 48.77582 | 4.03248 | 22544 ft | 419 kts | 112° |
| 2026-05-05 19:40 | 48.76469 | 4.07299 | 22952 ft | 419 kts | 115° |
| 2026-05-05 19:40 | 48.75255 | 4.11370 | 23319 ft | 421 kts | 115° |
| 2026-05-05 19:41 | 48.74066 | 4.15400 | 23667 ft | 423 kts | 115° |
| 2026-05-05 19:41 | 48.72883 | 4.19494 | 23929 ft | 428 kts | 114° |
| 2026-05-05 19:41 | 48.71700 | 4.23661 | 24211 ft | 431 kts | 114° |
| 2026-05-05 19:41 | 48.70528 | 4.27838 | 24663 ft | 429 kts | 114° |
| 2026-05-05 19:42 | 48.69382 | 4.31945 | 25016 ft | 430 kts | 114° |
| 2026-05-05 19:42 | 48.68204 | 4.36175 | 25332 ft | 432 kts | 114° |
| 2026-05-05 19:42 | 48.67049 | 4.40329 | 25649 ft | 434 kts | 114° |
| 2026-05-05 19:42 | 48.65880 | 4.44533 | 25985 ft | 435 kts | 114° |
| 2026-05-05 19:43 | 48.64702 | 4.48766 | 26316 ft | 437 kts | 114° |
| 2026-05-05 19:43 | 48.63522 | 4.53003 | 26639 ft | 438 kts | 114° |
| 2026-05-05 19:43 | 48.62340 | 4.57234 | 26958 ft | 439 kts | 114° |
| 2026-05-05 19:43 | 48.61157 | 4.61468 | 27251 ft | 441 kts | 114° |
| 2026-05-05 19:44 | 48.59971 | 4.65705 | 27530 ft | 442 kts | 114° |
| 2026-05-05 19:44 | 48.58755 | 4.70036 | 27811 ft | 444 kts | 114° |
| 2026-05-05 19:44 | 48.57556 | 4.74298 | 28044 ft | 445 kts | 115° |
| 2026-05-05 19:44 | 48.56387 | 4.78447 | 28339 ft | 446 kts | 115° |
| 2026-05-05 19:45 | 48.55163 | 4.82789 | 28649 ft | 445 kts | 115° |
| 2026-05-05 19:45 | 48.53949 | 4.87086 | 28991 ft | 444 kts | 115° |
| 2026-05-05 19:45 | 48.52740 | 4.91357 | 29300 ft | 443 kts | 115° |
| 2026-05-05 19:45 | 48.51532 | 4.95617 | 29542 ft | 444 kts | 115° |
| 2026-05-05 19:46 | 48.50323 | 4.99871 | 29767 ft | 445 kts | 115° |
| 2026-05-05 19:46 | 48.49106 | 5.04148 | 30001 ft | 445 kts | 115° |
| 2026-05-05 19:46 | 48.47882 | 5.08441 | 30235 ft | 445 kts | 115° |
| 2026-05-05 19:46 | 48.46663 | 5.12708 | 30466 ft | 446 kts | 115° |
| 2026-05-05 19:47 | 48.45434 | 5.17005 | 30699 ft | 446 kts | 115° |
| 2026-05-05 19:47 | 48.44206 | 5.21291 | 30879 ft | 448 kts | 115° |
| 2026-05-05 19:47 | 48.42978 | 5.25565 | 30918 ft | 452 kts | 115° |
| 2026-05-05 19:48 | 48.40464 | 5.34300 | 30931 ft | 455 kts | 115° |
| 2026-05-05 19:48 | 48.37952 | 5.42996 | 30926 ft | 455 kts | 115° |
| 2026-05-05 19:49 | 48.35442 | 5.51656 | 30893 ft | 455 kts | 115° |
| 2026-05-05 19:49 | 48.32896 | 5.60404 | 30890 ft | 455 kts | 116° |
| 2026-05-05 19:50 | 48.30360 | 5.69087 | 30890 ft | 455 kts | 116° |
| 2026-05-05 19:50 | 48.27877 | 5.77556 | 30885 ft | 455 kts | 116° |
| 2026-05-05 19:51 | 48.25392 | 5.86008 | 30885 ft | 455 kts | 117° |
| 2026-05-05 19:51 | 48.22918 | 5.94393 | 30884 ft | 455 kts | 117° |
| 2026-05-05 19:52 | 48.20349 | 6.03067 | 30882 ft | 456 kts | 117° |
| 2026-05-05 19:52 | 48.17775 | 6.11731 | 30879 ft | 456 kts | 117° |
| 2026-05-05 19:53 | 48.15190 | 6.20399 | 30875 ft | 456 kts | 117° |
| 2026-05-05 19:53 | 48.12598 | 6.29058 | 30872 ft | 456 kts | 117° |
| 2026-05-05 19:54 | 48.09994 | 6.37720 | 30871 ft | 456 kts | 117° |
| 2026-05-05 19:54 | 48.07402 | 6.46318 | 30873 ft | 456 kts | 117° |
| 2026-05-05 19:55 | 48.04784 | 6.54969 | 30875 ft | 456 kts | 117° |
| 2026-05-05 19:55 | 48.02175 | 6.63562 | 30879 ft | 456 kts | 117° |
| 2026-05-05 19:56 | 47.99555 | 6.72164 | 30883 ft | 456 kts | 117° |
| 2026-05-05 19:56 | 47.96976 | 6.80608 | 30889 ft | 456 kts | 117° |
| 2026-05-05 19:57 | 47.94468 | 6.88796 | 30874 ft | 459 kts | 118° |
| 2026-05-05 19:57 | 47.91774 | 6.97556 | 30873 ft | 464 kts | 118° |
| 2026-05-05 19:58 | 47.89077 | 7.06283 | 30881 ft | 466 kts | 118° |
| 2026-05-05 19:58 | 47.86381 | 7.14980 | 30875 ft | 467 kts | 118° |
| 2026-05-05 19:59 | 47.83749 | 7.23440 | 30870 ft | 468 kts | 118° |
| 2026-05-05 19:59 | 47.80993 | 7.32266 | 30868 ft | 468 kts | 118° |
| 2026-05-05 20:00 | 47.78248 | 7.41025 | 30871 ft | 469 kts | 118° |
| 2026-05-05 20:00 | 47.75034 | 7.49420 | 30873 ft | 463 kts | 131° |
| 2026-05-05 20:01 | 47.70483 | 7.56040 | 30883 ft | 458 kts | 146° |
| 2026-05-05 20:01 | 47.64979 | 7.60571 | 30895 ft | 452 kts | 158° |
| 2026-05-05 20:02 | 47.59208 | 7.64299 | 30900 ft | 452 kts | 158° |
| 2026-05-05 20:02 | 47.53428 | 7.68005 | 30902 ft | 452 kts | 159° |
| 2026-05-05 20:03 | 47.47798 | 7.71621 | 30901 ft | 452 kts | 159° |
| 2026-05-05 20:03 | 47.42137 | 7.75256 | 30902 ft | 452 kts | 159° |
| 2026-05-05 20:04 | 47.36350 | 7.78963 | 30905 ft | 452 kts | 159° |
| 2026-05-05 20:04 | 47.30576 | 7.82655 | 30910 ft | 452 kts | 159° |
| 2026-05-05 20:05 | 47.24806 | 7.86336 | 30913 ft | 452 kts | 159° |
| 2026-05-05 20:05 | 47.19023 | 7.90020 | 30918 ft | 452 kts | 160° |
| 2026-05-05 20:06 | 47.13256 | 7.93683 | 30923 ft | 452 kts | 160° |
| 2026-05-05 20:06 | 47.07509 | 7.97323 | 30930 ft | 452 kts | 160° |
| 2026-05-05 20:07 | 47.01701 | 8.00992 | 30959 ft | 452 kts | 160° |
| 2026-05-05 20:07 | 46.95921 | 8.04635 | 31005 ft | 452 kts | 161° |
| 2026-05-05 20:08 | 46.90153 | 8.08262 | 31022 ft | 453 kts | 161° |
| 2026-05-05 20:08 | 46.84449 | 8.11840 | 30996 ft | 453 kts | 161° |
| 2026-05-05 20:09 | 46.78810 | 8.15369 | 30890 ft | 454 kts | 162° |
| 2026-05-05 20:09 | 46.75880 | 8.17200 | 30788 ft | 454 kts | 162° |
| 2026-05-05 20:09 | 46.73136 | 8.18912 | 30652 ft | 454 kts | 162° |
| 2026-05-05 20:09 | 46.70231 | 8.20721 | 30461 ft | 454 kts | 162° |
| 2026-05-05 20:10 | 46.67328 | 8.22529 | 30284 ft | 454 kts | 162° |
| 2026-05-05 20:10 | 46.64433 | 8.24329 | 30149 ft | 455 kts | 162° |
| 2026-05-05 20:10 | 46.61509 | 8.26149 | 30039 ft | 447 kts | 162° |
| 2026-05-05 20:10 | 46.58691 | 8.27903 | 29630 ft | 441 kts | 162° |
| 2026-05-05 20:11 | 46.55885 | 8.29641 | 28870 ft | 444 kts | 162° |
| 2026-05-05 20:11 | 46.53053 | 8.31381 | 28091 ft | 444 kts | 164° |
| 2026-05-05 20:11 | 46.50176 | 8.32827 | 27544 ft | 434 kts | 168° |
| 2026-05-05 20:11 | 46.47290 | 8.34060 | 26894 ft | 426 kts | 169° |
| 2026-05-05 20:12 | 46.44459 | 8.35233 | 26172 ft | 421 kts | 169° |
| 2026-05-05 20:12 | 46.41672 | 8.36396 | 25528 ft | 417 kts | 169° |
| 2026-05-05 20:12 | 46.38898 | 8.37567 | 25174 ft | 418 kts | 168° |
| 2026-05-05 20:12 | 46.36090 | 8.38763 | 25067 ft | 421 kts | 168° |
| 2026-05-05 20:13 | 46.33276 | 8.39971 | 24993 ft | 413 kts | 167° |
| 2026-05-05 20:13 | 46.30603 | 8.41130 | 24942 ft | 390 kts | 167° |
| 2026-05-05 20:13 | 46.28101 | 8.42214 | 24934 ft | 368 kts | 167° |
| 2026-05-05 20:13 | 46.25725 | 8.43242 | 25052 ft | 348 kts | 168° |
| 2026-05-05 20:14 | 46.23444 | 8.44226 | 25115 ft | 330 kts | 168° |
| 2026-05-05 20:14 | 46.21315 | 8.45142 | 25208 ft | 312 kts | 169° |
| 2026-05-05 20:14 | 46.19271 | 8.46015 | 25322 ft | 306 kts | 169° |
| 2026-05-05 20:14 | 46.17230 | 8.46882 | 25428 ft | 305 kts | 169° |
| 2026-05-05 20:15 | 46.15190 | 8.47751 | 25527 ft | 304 kts | 169° |
| 2026-05-05 20:15 | 46.13185 | 8.48608 | 25616 ft | 304 kts | 169° |
| 2026-05-05 20:15 | 46.11179 | 8.49502 | 25596 ft | 300 kts | 168° |
| 2026-05-05 20:15 | 46.09202 | 8.50512 | 25318 ft | 301 kts | 166° |
| 2026-05-05 20:16 | 46.07247 | 8.51571 | 24987 ft | 300 kts | 166° |
| 2026-05-05 20:16 | 46.05312 | 8.52608 | 24676 ft | 298 kts | 166° |
| 2026-05-05 20:16 | 46.03360 | 8.53655 | 24342 ft | 296 kts | 166° |
| 2026-05-05 20:16 | 46.01451 | 8.54677 | 23924 ft | 294 kts | 166° |
| 2026-05-05 20:17 | 45.99539 | 8.55701 | 23507 ft | 292 kts | 166° |
| 2026-05-05 20:17 | 45.97643 | 8.56716 | 23081 ft | 290 kts | 166° |
| 2026-05-05 20:17 | 45.95776 | 8.57717 | 22667 ft | 288 kts | 165° |
| 2026-05-05 20:17 | 45.93898 | 8.58726 | 22261 ft | 287 kts | 165° |
| 2026-05-05 20:18 | 45.92029 | 8.59728 | 21858 ft | 285 kts | 165° |
| 2026-05-05 20:18 | 45.90218 | 8.60897 | 21457 ft | 289 kts | 158° |
| 2026-05-05 20:18 | 45.88642 | 8.62289 | 21102 ft | 292 kts | 150° |
| 2026-05-05 20:18 | 45.87126 | 8.63958 | 20736 ft | 292 kts | 148° |
| 2026-05-05 20:19 | 45.85600 | 8.65728 | 20376 ft | 291 kts | 148° |
| 2026-05-05 20:19 | 45.84177 | 8.67389 | 20018 ft | 290 kts | 148° |
| 2026-05-05 20:19 | 45.82580 | 8.69248 | 19617 ft | 289 kts | 148° |
| 2026-05-05 20:19 | 45.81152 | 8.70906 | 19271 ft | 287 kts | 148° |
| 2026-05-05 20:20 | 45.79630 | 8.72671 | 18903 ft | 287 kts | 148° |
| 2026-05-05 20:20 | 45.78217 | 8.74305 | 18560 ft | 286 kts | 148° |
| 2026-05-05 20:20 | 45.76636 | 8.76002 | 18182 ft | 283 kts | 152° |
| 2026-05-05 20:20 | 45.74971 | 8.77492 | 17799 ft | 279 kts | 157° |
| 2026-05-05 20:21 | 45.73286 | 8.78806 | 17424 ft | 278 kts | 158° |
| 2026-05-05 20:21 | 45.71583 | 8.80121 | 17046 ft | 278 kts | 158° |
| 2026-05-05 20:21 | 45.69865 | 8.81448 | 16663 ft | 277 kts | 157° |
| 2026-05-05 20:21 | 45.68173 | 8.82755 | 16286 ft | 277 kts | 157° |
| 2026-05-05 20:22 | 45.66504 | 8.84045 | 15907 ft | 273 kts | 157° |
| 2026-05-05 20:22 | 45.64828 | 8.85340 | 15527 ft | 272 kts | 157° |
| 2026-05-05 20:22 | 45.63164 | 8.86623 | 15149 ft | 272 kts | 157° |
| 2026-05-05 20:22 | 45.61502 | 8.87920 | 14771 ft | 273 kts | 153° |
| 2026-05-05 20:23 | 45.60133 | 8.89813 | 14370 ft | 284 kts | 122° |
| 2026-05-05 20:23 | 45.59673 | 8.92542 | 13989 ft | 289 kts | 88° |
| 2026-05-05 20:23 | 45.60194 | 8.95292 | 13620 ft | 288 kts | 69° |
| 2026-05-05 20:23 | 45.61019 | 8.97861 | 13235 ft | 285 kts | 59° |
| 2026-05-05 20:24 | 45.62382 | 8.99812 | 12836 ft | 281 kts | 26° |
| 2026-05-05 20:24 | 45.64174 | 9.00924 | 12469 ft | 280 kts | 19° |
| 2026-05-05 20:24 | 45.65983 | 9.01929 | 12089 ft | 280 kts | 15° |
| 2026-05-05 20:24 | 45.67866 | 9.02281 | 11687 ft | 269 kts | 343° |
| 2026-05-05 20:25 | 45.69477 | 9.01198 | 11314 ft | 254 kts | 311° |
| 2026-05-05 20:25 | 45.70498 | 8.99243 | 11020 ft | 239 kts | 287° |
| 2026-05-05 20:25 | 45.70841 | 8.96976 | 10992 ft | 234 kts | 265° |
| 2026-05-05 20:25 | 45.70523 | 8.94731 | 10987 ft | 231 kts | 243° |
| 2026-05-05 20:26 | 45.69592 | 8.92873 | 10981 ft | 231 kts | 220° |
| 2026-05-05 20:26 | 45.68225 | 8.91696 | 10981 ft | 234 kts | 205° |
| 2026-05-05 20:26 | 45.66724 | 8.90766 | 10971 ft | 236 kts | 205° |
| 2026-05-05 20:26 | 45.65210 | 8.89826 | 10973 ft | 237 kts | 205° |
| 2026-05-05 20:27 | 45.63687 | 8.88881 | 10989 ft | 237 kts | 205° |
| 2026-05-05 20:27 | 45.62183 | 8.87946 | 11010 ft | 237 kts | 205° |
| 2026-05-05 20:27 | 45.60631 | 8.87149 | 11025 ft | 239 kts | 188° |
| 2026-05-05 20:27 | 45.58981 | 8.87427 | 11050 ft | 246 kts | 161° |
| 2026-05-05 20:28 | 45.57538 | 8.88809 | 11051 ft | 254 kts | 135° |
| 2026-05-05 20:28 | 45.56656 | 8.90989 | 11039 ft | 262 kts | 108° |
| 2026-05-05 20:28 | 45.56563 | 8.93604 | 11022 ft | 269 kts | 79° |
| 2026-05-05 20:28 | 45.57361 | 8.96024 | 11005 ft | 273 kts | 48° |
| 2026-05-05 20:29 | 45.58879 | 8.97629 | 11004 ft | 272 kts | 22° |
| 2026-05-05 20:29 | 45.60615 | 8.98655 | 10999 ft | 272 kts | 20° |
| 2026-05-05 20:29 | 45.62359 | 8.99655 | 10989 ft | 270 kts | 21° |
| 2026-05-05 20:29 | 45.64083 | 9.00683 | 10770 ft | 267 kts | 21° |
| 2026-05-05 20:30 | 45.65783 | 9.01716 | 10442 ft | 265 kts | 18° |
| 2026-05-05 20:30 | 45.67567 | 9.02126 | 10145 ft | 257 kts | 348° |
| 2026-05-05 20:30 | 45.69190 | 9.01256 | 10008 ft | 248 kts | 319° |
| 2026-05-05 20:30 | 45.70334 | 8.99483 | 9918 ft | 243 kts | 294° |
| 2026-05-05 20:31 | 45.70811 | 8.97221 | 9713 ft | 236 kts | 269° |
| 2026-05-05 20:31 | 45.70578 | 8.94956 | 9510 ft | 234 kts | 246° |
| 2026-05-05 20:31 | 45.69703 | 8.93019 | 9306 ft | 234 kts | 223° |
| 2026-05-05 20:31 | 45.68330 | 8.91744 | 9109 ft | 236 kts | 205° |
| 2026-05-05 20:32 | 45.66830 | 8.90814 | 8978 ft | 237 kts | 204° |
| 2026-05-05 20:32 | 45.65305 | 8.89880 | 8968 ft | 238 kts | 204° |
| 2026-05-05 20:32 | 45.63777 | 8.88938 | 8959 ft | 239 kts | 204° |
| 2026-05-05 20:32 | 45.62251 | 8.87993 | 8956 ft | 240 kts | 204° |
| 2026-05-05 20:33 | 45.60697 | 8.87166 | 8955 ft | 239 kts | 189° |
| 2026-05-05 20:33 | 45.59055 | 8.87392 | 8972 ft | 241 kts | 160° |
| 2026-05-05 20:33 | 45.57638 | 8.88669 | 8989 ft | 244 kts | 135° |
| 2026-05-05 20:33 | 45.56728 | 8.90708 | 9000 ft | 248 kts | 110° |
| 2026-05-05 20:34 | 45.56528 | 8.93137 | 9002 ft | 252 kts | 83° |
| 2026-05-05 20:34 | 45.57119 | 8.95492 | 9002 ft | 255 kts | 56° |
| 2026-05-05 20:34 | 45.58411 | 8.97236 | 8999 ft | 257 kts | 28° |
| 2026-05-05 20:34 | 45.60034 | 8.98285 | 9003 ft | 257 kts | 22° |
| 2026-05-05 20:35 | 45.61680 | 8.99246 | 8999 ft | 257 kts | 22° |
| 2026-05-05 20:35 | 45.63338 | 9.00229 | 8997 ft | 257 kts | 22° |
| 2026-05-05 20:35 | 45.64999 | 9.01239 | 8997 ft | 257 kts | 22° |
| 2026-05-05 20:35 | 45.66667 | 9.02078 | 8985 ft | 257 kts | 5° |
| 2026-05-05 20:36 | 45.68421 | 9.01811 | 8989 ft | 253 kts | 335° |
| 2026-05-05 20:36 | 45.69850 | 9.00418 | 8992 ft | 249 kts | 308° |
| 2026-05-05 20:36 | 45.70676 | 8.98296 | 8993 ft | 245 kts | 282° |
| 2026-05-05 20:36 | 45.70764 | 8.95873 | 8994 ft | 243 kts | 257° |
| 2026-05-05 20:37 | 45.70120 | 8.93678 | 8992 ft | 241 kts | 232° |
| 2026-05-05 20:37 | 45.69344 | 8.92525 | 8954 ft | 241 kts | 215° |
| 2026-05-05 20:37 | 45.67378 | 8.91114 | 8634 ft | 238 kts | 203° |
| 2026-05-05 20:37 | 45.65845 | 8.90195 | 8260 ft | 240 kts | 203° |
| 2026-05-05 20:38 | 45.64309 | 8.89266 | 7963 ft | 239 kts | 203° |
| 2026-05-05 20:38 | 45.62791 | 8.88334 | 7702 ft | 236 kts | 203° |
| 2026-05-05 20:38 | 45.61301 | 8.87429 | 7457 ft | 232 kts | 199° |
| 2026-05-05 20:38 | 45.59732 | 8.87173 | 7169 ft | 231 kts | 170° |
| 2026-05-05 20:39 | 45.58254 | 8.88005 | 7027 ft | 231 kts | 146° |
| 2026-05-05 20:39 | 45.57115 | 8.89655 | 7018 ft | 237 kts | 122° |
| 2026-05-05 20:39 | 45.56553 | 8.91863 | 7008 ft | 241 kts | 97° |
| 2026-05-05 20:39 | 45.56713 | 8.94239 | 7000 ft | 244 kts | 71° |
| 2026-05-05 20:40 | 45.57586 | 8.96293 | 6996 ft | 246 kts | 44° |
| 2026-05-05 20:40 | 45.59012 | 8.97641 | 7001 ft | 245 kts | 24° |
| 2026-05-05 20:40 | 45.60565 | 8.98582 | 6998 ft | 245 kts | 22° |
| 2026-05-05 20:40 | 45.62146 | 8.99511 | 6997 ft | 245 kts | 22° |
| 2026-05-05 20:41 | 45.63721 | 9.00458 | 6997 ft | 245 kts | 23° |
| 2026-05-05 20:41 | 45.65286 | 9.01421 | 6997 ft | 245 kts | 23° |
| 2026-05-05 20:41 | 45.66923 | 9.02122 | 6986 ft | 244 kts | 1° |
| 2026-05-05 20:41 | 45.68565 | 9.01720 | 7023 ft | 242 kts | 333° |
| 2026-05-05 20:42 | 45.69912 | 9.00316 | 7044 ft | 239 kts | 307° |
| 2026-05-05 20:42 | 45.70685 | 8.98264 | 7055 ft | 236 kts | 282° |
| 2026-05-05 20:42 | 45.70779 | 8.95958 | 7063 ft | 233 kts | 258° |
| 2026-05-05 20:42 | 45.70198 | 8.93825 | 7039 ft | 231 kts | 233° |
| 2026-05-05 20:43 | 45.69061 | 8.92244 | 7027 ft | 230 kts | 210° |
| 2026-05-05 20:43 | 45.67554 | 8.91482 | 7017 ft | 231 kts | 184° |
| 2026-05-05 20:43 | 45.65947 | 8.91454 | 7026 ft | 231 kts | 181° |
| 2026-05-05 20:43 | 45.64335 | 8.91404 | 6994 ft | 231 kts | 182° |
| 2026-05-05 20:44 | 45.62738 | 8.91334 | 6978 ft | 231 kts | 182° |
| 2026-05-05 20:44 | 45.61127 | 8.91260 | 6916 ft | 231 kts | 182° |
| 2026-05-05 20:44 | 45.59520 | 8.91186 | 6750 ft | 230 kts | 182° |
| 2026-05-05 20:44 | 45.57915 | 8.91111 | 6621 ft | 229 kts | 182° |
| 2026-05-05 20:45 | 45.54735 | 8.90967 | 6376 ft | 228 kts | 182° |
| 2026-05-05 20:45 | 45.53133 | 8.90893 | 6252 ft | 227 kts | 182° |
| 2026-05-05 20:45 | 45.51555 | 8.90826 | 6129 ft | 227 kts | 180° |
| 2026-05-05 20:46 | 45.49983 | 8.90947 | 6006 ft | 224 kts | 174° |
| 2026-05-05 20:46 | 45.48474 | 8.91287 | 5994 ft | 214 kts | 170° |
| 2026-05-05 20:46 | 45.47015 | 8.91687 | 5998 ft | 214 kts | 170° |
| 2026-05-05 20:46 | 45.45548 | 8.92090 | 6000 ft | 214 kts | 170° |
| 2026-05-05 20:47 | 45.44092 | 8.92488 | 6001 ft | 214 kts | 170° |
| 2026-05-05 20:47 | 45.42630 | 8.92886 | 6001 ft | 214 kts | 170° |
| 2026-05-05 20:47 | 45.41162 | 8.93285 | 6001 ft | 214 kts | 170° |
| 2026-05-05 20:47 | 45.39697 | 8.93683 | 6002 ft | 214 kts | 170° |
| 2026-05-05 20:48 | 45.38248 | 8.94077 | 6001 ft | 214 kts | 170° |
| 2026-05-05 20:48 | 45.36767 | 8.94477 | 6002 ft | 214 kts | 170° |
| 2026-05-05 20:48 | 45.35318 | 8.94867 | 6001 ft | 214 kts | 170° |
| 2026-05-05 20:48 | 45.33835 | 8.95268 | 6002 ft | 214 kts | 171° |
| 2026-05-05 20:49 | 45.32375 | 8.95664 | 6003 ft | 214 kts | 171° |
| 2026-05-05 20:49 | 45.30925 | 8.96053 | 6001 ft | 214 kts | 171° |
| 2026-05-05 20:49 | 45.29458 | 8.96447 | 6002 ft | 214 kts | 171° |
| 2026-05-05 20:49 | 45.27986 | 8.96842 | 6002 ft | 213 kts | 172° |
| 2026-05-05 20:50 | 45.26530 | 8.96839 | 5905 ft | 212 kts | 199° |
| 2026-05-05 20:50 | 45.25664 | 8.96202 | 5737 ft | 211 kts | 222° |
| 2026-05-05 20:50 | 45.24765 | 8.93806 | 5419 ft | 212 kts | 258° |
| 2026-05-05 20:50 | 45.24550 | 8.91748 | 5172 ft | 211 kts | 263° |
| 2026-05-05 20:51 | 45.24702 | 8.89706 | 4912 ft | 213 kts | 298° |
| 2026-05-05 20:51 | 45.25789 | 8.88271 | 4789 ft | 218 kts | 336° |
| 2026-05-05 20:51 | 45.27223 | 8.87568 | 4685 ft | 219 kts | 341° |
| 2026-05-05 20:51 | 45.28666 | 8.86874 | 4558 ft | 218 kts | 339° |
| 2026-05-05 20:52 | 45.30079 | 8.86147 | 4434 ft | 217 kts | 338° |
| 2026-05-05 20:52 | 45.31486 | 8.85390 | 4308 ft | 217 kts | 338° |
| 2026-05-05 20:52 | 45.32912 | 8.84606 | 4181 ft | 216 kts | 338° |
| 2026-05-05 20:52 | 45.34306 | 8.83831 | 4055 ft | 215 kts | 338° |
| 2026-05-05 20:53 | 45.35707 | 8.83048 | 4009 ft | 215 kts | 338° |
| 2026-05-05 20:53 | 45.37094 | 8.82271 | 4004 ft | 215 kts | 338° |
| 2026-05-05 20:53 | 45.38485 | 8.81490 | 4001 ft | 215 kts | 338° |
| 2026-05-05 20:53 | 45.39842 | 8.80575 | 4009 ft | 215 kts | 331° |
| 2026-05-05 20:54 | 45.41174 | 8.79659 | 4012 ft | 215 kts | 338° |
| 2026-05-05 20:54 | 45.42607 | 8.79006 | 4015 ft | 215 kts | 346° |
| 2026-05-05 20:54 | 45.44071 | 8.78552 | 4016 ft | 215 kts | 349° |
| 2026-05-05 20:54 | 45.45538 | 8.78160 | 3899 ft | 215 kts | 349° |
| 2026-05-05 20:55 | 45.47104 | 8.77732 | 3791 ft | 251 kts | 349° |
| 2026-05-05 20:55 | 45.48872 | 8.77253 | 3321 ft | 256 kts | 349° |
| 2026-05-05 20:55 | 45.50578 | 8.76822 | 2842 ft | 243 kts | 350° |
| 2026-05-05 20:55 | 45.52170 | 8.76393 | 2317 ft | 224 kts | 347° |
| 2026-05-05 20:56 | 45.53591 | 8.75966 | 2215 ft | 195 kts | 346° |
| 2026-05-05 20:56 | 45.54841 | 8.75602 | 2115 ft | 172 kts | 348° |
| 2026-05-05 20:56 | 45.55980 | 8.75281 | 1849 ft | 163 kts | 348° |
| 2026-05-05 20:56 | 45.57113 | 8.74971 | 1628 ft | 171 kts | 348° |
| 2026-05-05 20:57 | 45.58247 | 8.74664 | 1404 ft | 160 kts | 348° |
| 2026-05-05 20:57 | 45.59307 | 8.74376 | 1173 ft | 150 kts | 348° |
| 2026-05-05 20:57 | 45.60310 | 8.74100 | 972 ft | 142 kts | 348° |
| 2026-05-05 20:57 | 45.61280 | 8.73837 | 792 ft | 141 kts | 348° |
| 2026-05-05 20:58 | 45.62221 | 8.73574 | 712 ft | 126 kts | 348° |
| 2026-05-05 20:58 | 45.62909 | 8.73380 | 729 ft | 59 kts | 349° |
| 2026-05-05 20:58 | 45.63195 | 8.73183 | 735 ft | 33 kts | 316° |
| 2026-05-05 20:58 | 45.63324 | 8.72940 | 739 ft | 21 kts | 304° |
| 2026-05-05 20:59 | 45.63363 | 8.72856 | 741 ft | 8 kts | 303° |
| 2026-05-05 20:59 | 45.63396 | 8.72784 | 742 ft | 8 kts | 304° |
| 2026-05-05 20:59 | 45.63412 | 8.72701 | 742 ft | 9 kts | 277° |
| 2026-05-05 20:59 | 45.63407 | 8.72606 | 743 ft | 10 kts | 260° |
| 2026-05-05 21:00 | 45.63393 | 8.72503 | 743 ft | 10 kts | 258° |
| 2026-05-05 21:00 | 45.63378 | 8.72394 | 744 ft | 11 kts | 259° |
| 2026-05-05 21:00 | 45.63363 | 8.72277 | 744 ft | 12 kts | 258° |
| 2026-05-05 21:00 | 45.63345 | 8.72151 | 744 ft | 13 kts | 260° |
| 2026-05-05 21:01 | 45.63334 | 8.72059 | 744 ft | 0 kts | 261° |
| 2026-05-05 21:01 | 45.63334 | 8.72057 | 744 ft | 0 kts | 259° |
| 2026-05-05 21:01 | 45.63331 | 8.72043 | 744 ft | 2 kts | 258° |
| 2026-05-05 21:01 | 45.63326 | 8.72012 | 744 ft | 4 kts | 258° |
| 2026-05-05 21:02 | 45.63300 | 8.71971 | 744 ft | 7 kts | 197° |
| 2026-05-05 21:02 | 45.63228 | 8.71980 | 743 ft | 13 kts | 166° |
| 2026-05-05 21:02 | 45.63116 | 8.72015 | 740 ft | 18 kts | 170° |
| 2026-05-05 21:02 | 45.63004 | 8.71999 | 738 ft | 15 kts | 238° |
| 2026-05-05 21:03 | 45.62979 | 8.71849 | 738 ft | 14 kts | 259° |
| 2026-05-05 21:03 | 45.62966 | 8.71775 | 738 ft | 6 kts | 235° |
| 2026-05-05 21:03 | 45.62930 | 8.71757 | 738 ft | 0 kts | 176° |
| 2026-05-05 21:03 | 45.62915 | 8.71759 | 737 ft | 3 kts | 174° |
| 2026-05-05 21:04 | 45.62882 | 8.71767 | 737 ft | 6 kts | 170° |
| 2026-05-05 21:04 | 45.62841 | 8.71789 | 736 ft | 6 kts | 104° |
| 2026-05-05 21:04 | 45.62848 | 8.71867 | 736 ft | 8 kts | 78° |
| 2026-05-05 21:04 | 45.62850 | 8.71882 | 736 ft | 1 kts | 79° |
| 2026-05-05 21:05 | 45.62850 | 8.71883 | 736 ft | 0 kts | 79° |